sensor_id;sensor_type;location;lat;lon;timestamp;temperature;humidity
29571;DHT22;16814;52.118;11.436;2024-02-26T00:01:42;1.90;99.90
29571;DHT22;16814;52.118;11.436;2024-02-26T00:04:09;1.90;99.90
29571;DHT22;16814;52.118;11.436;2024-02-26T00:06:35;1.90;99.90
29571;DHT22;16814;52.118;11.436;2024-02-26T00:09:00;1.90;99.90
29571;DHT22;16814;52.118;11.436;2024-02-26T00:11:28;1.90;99.90
29571;DHT22;16814;52.118;11.436;2024-02-26T00:13:53;1.90;99.90
29571;DHT22;16814;52.118;11.436;2024-02-26T00:16:19;1.80;99.90
29571;DHT22;16814;52.118;11.436;2024-02-26T00:18:44;1.70;99.90
29571;DHT22;16814;52.118;11.436;2024-02-26T00:21:10;1.70;99.90
29571;DHT22;16814;52.118;11.436;2024-02-26T00:23:35;1.70;99.90
29571;DHT22;16814;52.118;11.436;2024-02-26T00:26:01;1.70;99.90
29571;DHT22;16814;52.118;11.436;2024-02-26T00:28:26;1.80;99.90
29571;DHT22;16814;52.118;11.436;2024-02-26T00:30:52;1.80;99.90
29571;DHT22;16814;52.118;11.436;2024-02-26T00:33:21;1.70;99.90
29571;DHT22;16814;52.118;11.436;2024-02-26T00:35:47;1.70;99.90
29571;DHT22;16814;52.118;11.436;2024-02-26T00:38:12;1.60;99.90
29571;DHT22;16814;52.118;11.436;2024-02-26T00:40:38;1.60;99.90
29571;DHT22;16814;52.118;11.436;2024-02-26T00:43:04;1.50;99.90
29571;DHT22;16814;52.118;11.436;2024-02-26T00:45:29;1.50;99.90
29571;DHT22;16814;52.118;11.436;2024-02-26T00:47:55;1.60;99.90
29571;DHT22;16814;52.118;11.436;2024-02-26T00:50:21;1.60;99.90
29571;DHT22;16814;52.118;11.436;2024-02-26T00:52:46;1.60;99.90
29571;DHT22;16814;52.118;11.436;2024-02-26T00:55:12;1.70;99.90
29571;DHT22;16814;52.118;11.436;2024-02-26T00:57:37;1.70;99.90
29571;DHT22;16814;52.118;11.436;2024-02-26T01:00:03;1.60;99.90
29571;DHT22;16814;52.118;11.436;2024-02-26T01:02:29;1.40;99.90
29571;DHT22;16814;52.118;11.436;2024-02-26T01:04:55;1.40;99.90
29571;DHT22;16814;52.118;11.436;2024-02-26T01:07:20;1.30;99.90
29571;DHT22;16814;52.118;11.436;2024-02-26T01:09:46;1.20;99.90
29571;DHT22;16814;52.118;11.436;2024-02-26T01:12:11;1.20;99.90
29571;DHT22;16814;52.118;11.436;2024-02-26T01:14:37;1.20;99.90
29571;DHT22;16814;52.118;11.436;2024-02-26T01:17:03;1.20;99.90
29571;DHT22;16814;52.118;11.436;2024-02-26T01:19:28;1.30;99.90
29571;DHT22;16814;52.118;11.436;2024-02-26T01:21:54;1.20;99.90
29571;DHT22;16814;52.118;11.436;2024-02-26T01:24:19;1.20;99.90
29571;DHT22;16814;52.118;11.436;2024-02-26T01:26:45;1.20;99.90
29571;DHT22;16814;52.118;11.436;2024-02-26T01:29:10;1.10;99.90
29571;DHT22;16814;52.118;11.436;2024-02-26T01:31:36;1.10;99.90
29571;DHT22;16814;52.118;11.436;2024-02-26T01:34:01;1.10;99.90
29571;DHT22;16814;52.118;11.436;2024-02-26T01:36:27;1.10;99.90
29571;DHT22;16814;52.118;11.436;2024-02-26T01:38:52;1.10;99.90
29571;DHT22;16814;52.118;11.436;2024-02-26T01:41:18;1.30;99.90
29571;DHT22;16814;52.118;11.436;2024-02-26T01:43:44;1.20;99.90
29571;DHT22;16814;52.118;11.436;2024-02-26T01:46:12;1.10;99.90
29571;DHT22;16814;52.118;11.436;2024-02-26T01:48:42;1.10;99.90
29571;DHT22;16814;52.118;11.436;2024-02-26T01:51:08;1.00;99.90
29571;DHT22;16814;52.118;11.436;2024-02-26T01:53:35;1.10;99.90
29571;DHT22;16814;52.118;11.436;2024-02-26T01:56:01;1.10;99.90
29571;DHT22;16814;52.118;11.436;2024-02-26T01:58:26;1.20;99.90
29571;DHT22;16814;52.118;11.436;2024-02-26T02:00:53;1.10;99.90
29571;DHT22;16814;52.118;11.436;2024-02-26T02:03:18;1.20;99.90
29571;DHT22;16814;52.118;11.436;2024-02-26T02:05:44;1.10;99.90
29571;DHT22;16814;52.118;11.436;2024-02-26T02:08:13;1.10;99.90
29571;DHT22;16814;52.118;11.436;2024-02-26T02:10:39;1.10;99.90
29571;DHT22;16814;52.118;11.436;2024-02-26T02:13:06;1.10;99.90
29571;DHT22;16814;52.118;11.436;2024-02-26T02:15:31;1.00;99.90
29571;DHT22;16814;52.118;11.436;2024-02-26T02:17:57;1.00;99.90
29571;DHT22;16814;52.118;11.436;2024-02-26T02:20:35;1.10;99.90
29571;DHT22;16814;52.118;11.436;2024-02-26T02:23:01;1.10;99.90
29571;DHT22;16814;52.118;11.436;2024-02-26T02:25:27;1.10;99.90
29571;DHT22;16814;52.118;11.436;2024-02-26T02:27:54;1.10;99.90
29571;DHT22;16814;52.118;11.436;2024-02-26T02:30:29;1.10;99.90
29571;DHT22;16814;52.118;11.436;2024-02-26T02:32:55;1.10;99.90
29571;DHT22;16814;52.118;11.436;2024-02-26T02:35:22;1.00;99.90
29571;DHT22;16814;52.118;11.436;2024-02-26T02:37:48;1.00;99.90
29571;DHT22;16814;52.118;11.436;2024-02-26T02:40:13;0.90;99.90
29571;DHT22;16814;52.118;11.436;2024-02-26T02:42:39;0.90;99.90
29571;DHT22;16814;52.118;11.436;2024-02-26T02:45:04;0.90;99.90
29571;DHT22;16814;52.118;11.436;2024-02-26T02:47:30;0.90;99.90
29571;DHT22;16814;52.118;11.436;2024-02-26T02:49:55;0.90;99.90
29571;DHT22;16814;52.118;11.436;2024-02-26T02:52:21;0.80;99.90
29571;DHT22;16814;52.118;11.436;2024-02-26T02:54:46;0.90;99.90
29571;DHT22;16814;52.118;11.436;2024-02-26T02:57:12;0.90;99.90
29571;DHT22;16814;52.118;11.436;2024-02-26T02:59:38;0.90;99.90
29571;DHT22;16814;52.118;11.436;2024-02-26T03:02:03;1.00;99.90
29571;DHT22;16814;52.118;11.436;2024-02-26T03:04:30;1.00;99.90
29571;DHT22;16814;52.118;11.436;2024-02-26T03:06:55;1.00;99.90
29571;DHT22;16814;52.118;11.436;2024-02-26T03:09:21;0.90;99.90
29571;DHT22;16814;52.118;11.436;2024-02-26T03:11:46;1.00;99.90
29571;DHT22;16814;52.118;11.436;2024-02-26T03:14:12;1.00;99.90
29571;DHT22;16814;52.118;11.436;2024-02-26T03:16:37;1.10;99.90
29571;DHT22;16814;52.118;11.436;2024-02-26T03:19:03;1.00;99.90
29571;DHT22;16814;52.118;11.436;2024-02-26T03:21:29;1.00;99.90
29571;DHT22;16814;52.118;11.436;2024-02-26T03:23:54;0.80;99.90
29571;DHT22;16814;52.118;11.436;2024-02-26T03:26:20;0.90;99.90
29571;DHT22;16814;52.118;11.436;2024-02-26T03:28:46;0.90;99.90
29571;DHT22;16814;52.118;11.436;2024-02-26T03:31:12;0.90;99.90
29571;DHT22;16814;52.118;11.436;2024-02-26T03:33:38;0.90;99.90
29571;DHT22;16814;52.118;11.436;2024-02-26T03:36:03;0.90;99.90
29571;DHT22;16814;52.118;11.436;2024-02-26T03:38:30;1.00;99.90
29571;DHT22;16814;52.118;11.436;2024-02-26T03:40:55;1.00;99.90
29571;DHT22;16814;52.118;11.436;2024-02-26T03:43:21;1.00;99.90
29571;DHT22;16814;52.118;11.436;2024-02-26T03:45:47;1.10;99.90
29571;DHT22;16814;52.118;11.436;2024-02-26T03:48:12;1.10;99.90
29571;DHT22;16814;52.118;11.436;2024-02-26T03:50:38;1.20;99.90
29571;DHT22;16814;52.118;11.436;2024-02-26T03:53:03;1.20;99.90
29571;DHT22;16814;52.118;11.436;2024-02-26T03:55:29;1.10;99.90
29571;DHT22;16814;52.118;11.436;2024-02-26T03:57:54;1.10;99.90
29571;DHT22;16814;52.118;11.436;2024-02-26T04:00:20;1.10;99.90
29571;DHT22;16814;52.118;11.436;2024-02-26T04:02:48;0.90;99.90
29571;DHT22;16814;52.118;11.436;2024-02-26T04:05:14;0.80;99.90
29571;DHT22;16814;52.118;11.436;2024-02-26T04:07:40;0.80;99.90
29571;DHT22;16814;52.118;11.436;2024-02-26T04:10:10;0.70;99.90
29571;DHT22;16814;52.118;11.436;2024-02-26T04:12:37;0.70;99.90
29571;DHT22;16814;52.118;11.436;2024-02-26T04:15:03;0.70;99.90
29571;DHT22;16814;52.118;11.436;2024-02-26T04:17:29;0.70;99.90
29571;DHT22;16814;52.118;11.436;2024-02-26T04:19:55;0.70;99.90
29571;DHT22;16814;52.118;11.436;2024-02-26T04:22:20;0.70;99.90
29571;DHT22;16814;52.118;11.436;2024-02-26T04:24:46;0.70;99.90
29571;DHT22;16814;52.118;11.436;2024-02-26T04:27:11;0.70;99.90
29571;DHT22;16814;52.118;11.436;2024-02-26T04:29:37;0.70;99.90
29571;DHT22;16814;52.118;11.436;2024-02-26T04:32:03;0.60;99.90
29571;DHT22;16814;52.118;11.436;2024-02-26T04:34:29;0.60;99.90
29571;DHT22;16814;52.118;11.436;2024-02-26T04:36:54;0.60;99.90
29571;DHT22;16814;52.118;11.436;2024-02-26T04:39:20;0.60;99.90
29571;DHT22;16814;52.118;11.436;2024-02-26T04:41:46;0.60;99.90
29571;DHT22;16814;52.118;11.436;2024-02-26T04:44:11;0.60;99.90
29571;DHT22;16814;52.118;11.436;2024-02-26T04:46:37;0.60;99.90
29571;DHT22;16814;52.118;11.436;2024-02-26T04:49:02;0.60;99.90
29571;DHT22;16814;52.118;11.436;2024-02-26T04:51:28;0.60;99.90
29571;DHT22;16814;52.118;11.436;2024-02-26T04:53:54;0.70;99.90
29571;DHT22;16814;52.118;11.436;2024-02-26T04:56:21;0.70;99.90
29571;DHT22;16814;52.118;11.436;2024-02-26T04:58:47;0.70;99.90
29571;DHT22;16814;52.118;11.436;2024-02-26T05:01:12;0.80;99.90
29571;DHT22;16814;52.118;11.436;2024-02-26T05:03:38;0.70;99.90
29571;DHT22;16814;52.118;11.436;2024-02-26T05:06:05;0.80;99.90
29571;DHT22;16814;52.118;11.436;2024-02-26T05:08:30;0.80;99.90
29571;DHT22;16814;52.118;11.436;2024-02-26T05:10:56;0.80;99.90
29571;DHT22;16814;52.118;11.436;2024-02-26T05:13:22;0.80;99.90
29571;DHT22;16814;52.118;11.436;2024-02-26T05:15:47;0.90;99.90
29571;DHT22;16814;52.118;11.436;2024-02-26T05:18:15;0.90;99.90
29571;DHT22;16814;52.118;11.436;2024-02-26T05:20:40;0.80;99.90
29571;DHT22;16814;52.118;11.436;2024-02-26T05:23:06;0.80;99.90
29571;DHT22;16814;52.118;11.436;2024-02-26T05:25:31;0.90;99.90
29571;DHT22;16814;52.118;11.436;2024-02-26T05:27:57;0.80;99.90
29571;DHT22;16814;52.118;11.436;2024-02-26T05:30:23;0.80;99.90
29571;DHT22;16814;52.118;11.436;2024-02-26T05:32:48;0.90;99.90
29571;DHT22;16814;52.118;11.436;2024-02-26T05:35:14;0.90;99.90
29571;DHT22;16814;52.118;11.436;2024-02-26T05:37:40;0.90;99.90
29571;DHT22;16814;52.118;11.436;2024-02-26T05:40:06;0.90;99.90
29571;DHT22;16814;52.118;11.436;2024-02-26T05:42:31;0.90;99.90
29571;DHT22;16814;52.118;11.436;2024-02-26T05:44:57;0.90;99.90
29571;DHT22;16814;52.118;11.436;2024-02-26T05:47:23;0.90;99.90
29571;DHT22;16814;52.118;11.436;2024-02-26T05:49:48;0.80;99.90
29571;DHT22;16814;52.118;11.436;2024-02-26T05:52:14;0.80;99.90
29571;DHT22;16814;52.118;11.436;2024-02-26T05:54:40;0.70;99.90
29571;DHT22;16814;52.118;11.436;2024-02-26T05:57:05;0.70;99.90
29571;DHT22;16814;52.118;11.436;2024-02-26T05:59:31;0.70;99.90
29571;DHT22;16814;52.118;11.436;2024-02-26T06:01:56;0.70;99.90
29571;DHT22;16814;52.118;11.436;2024-02-26T06:04:22;0.60;99.90
29571;DHT22;16814;52.118;11.436;2024-02-26T06:06:47;0.60;99.90
29571;DHT22;16814;52.118;11.436;2024-02-26T06:09:13;0.60;99.90
29571;DHT22;16814;52.118;11.436;2024-02-26T06:11:39;0.60;99.90
29571;DHT22;16814;52.118;11.436;2024-02-26T06:14:04;0.60;99.90
29571;DHT22;16814;52.118;11.436;2024-02-26T06:16:30;0.60;99.90
29571;DHT22;16814;52.118;11.436;2024-02-26T06:18:56;0.70;99.90
29571;DHT22;16814;52.118;11.436;2024-02-26T06:21:22;0.60;99.90
29571;DHT22;16814;52.118;11.436;2024-02-26T06:23:47;0.60;99.90
29571;DHT22;16814;52.118;11.436;2024-02-26T06:26:13;0.70;99.90
29571;DHT22;16814;52.118;11.436;2024-02-26T06:28:38;0.70;99.90
29571;DHT22;16814;52.118;11.436;2024-02-26T06:31:06;1.10;99.90
29571;DHT22;16814;52.118;11.436;2024-02-26T06:33:32;0.80;99.90
29571;DHT22;16814;52.118;11.436;2024-02-26T06:35:57;0.90;99.90
29571;DHT22;16814;52.118;11.436;2024-02-26T06:38:23;1.00;99.90
29571;DHT22;16814;52.118;11.436;2024-02-26T06:40:48;1.10;99.90
29571;DHT22;16814;52.118;11.436;2024-02-26T06:43:14;1.20;99.90
29571;DHT22;16814;52.118;11.436;2024-02-26T06:45:39;1.20;99.90
29571;DHT22;16814;52.118;11.436;2024-02-26T06:48:05;1.20;99.90
29571;DHT22;16814;52.118;11.436;2024-02-26T06:50:31;1.30;99.90
29571;DHT22;16814;52.118;11.436;2024-02-26T06:52:56;1.30;99.90
29571;DHT22;16814;52.118;11.436;2024-02-26T06:55:22;1.30;99.90
29571;DHT22;16814;52.118;11.436;2024-02-26T06:57:47;1.40;99.90
29571;DHT22;16814;52.118;11.436;2024-02-26T07:00:13;1.50;99.90
29571;DHT22;16814;52.118;11.436;2024-02-26T07:02:42;1.40;99.90
29571;DHT22;16814;52.118;11.436;2024-02-26T07:05:08;1.40;99.90
29571;DHT22;16814;52.118;11.436;2024-02-26T07:07:33;1.50;99.90
29571;DHT22;16814;52.118;11.436;2024-02-26T07:10:01;1.60;99.90
29571;DHT22;16814;52.118;11.436;2024-02-26T07:12:30;1.50;99.90
29571;DHT22;16814;52.118;11.436;2024-02-26T07:14:55;1.50;99.90
29571;DHT22;16814;52.118;11.436;2024-02-26T07:17:21;1.60;99.90
29571;DHT22;16814;52.118;11.436;2024-02-26T07:19:46;1.60;99.90
29571;DHT22;16814;52.118;11.436;2024-02-26T07:22:12;1.60;99.90
29571;DHT22;16814;52.118;11.436;2024-02-26T07:24:39;1.60;99.90
29571;DHT22;16814;52.118;11.436;2024-02-26T07:27:04;1.50;99.90
29571;DHT22;16814;52.118;11.436;2024-02-26T07:29:30;1.50;99.90
29571;DHT22;16814;52.118;11.436;2024-02-26T07:31:56;1.50;99.90
29571;DHT22;16814;52.118;11.436;2024-02-26T07:34:21;1.50;99.90
29571;DHT22;16814;52.118;11.436;2024-02-26T07:36:53;1.60;99.90
29571;DHT22;16814;52.118;11.436;2024-02-26T07:39:19;1.70;99.90
29571;DHT22;16814;52.118;11.436;2024-02-26T07:41:44;1.80;99.90
29571;DHT22;16814;52.118;11.436;2024-02-26T07:44:12;1.80;99.90
29571;DHT22;16814;52.118;11.436;2024-02-26T07:46:37;2.00;99.90
29571;DHT22;16814;52.118;11.436;2024-02-26T07:49:03;2.00;99.90
29571;DHT22;16814;52.118;11.436;2024-02-26T07:51:28;2.00;99.90
29571;DHT22;16814;52.118;11.436;2024-02-26T07:53:54;2.10;99.90
29571;DHT22;16814;52.118;11.436;2024-02-26T07:56:19;2.10;99.90
29571;DHT22;16814;52.118;11.436;2024-02-26T07:58:45;2.10;99.90
29571;DHT22;16814;52.118;11.436;2024-02-26T08:01:13;2.20;99.90
29571;DHT22;16814;52.118;11.436;2024-02-26T08:03:39;2.30;99.90
29571;DHT22;16814;52.118;11.436;2024-02-26T08:06:05;2.50;99.90
29571;DHT22;16814;52.118;11.436;2024-02-26T08:08:30;2.50;99.90
29571;DHT22;16814;52.118;11.436;2024-02-26T08:10:56;2.60;99.90
29571;DHT22;16814;52.118;11.436;2024-02-26T08:13:21;2.70;99.90
29571;DHT22;16814;52.118;11.436;2024-02-26T08:15:47;2.70;99.90
29571;DHT22;16814;52.118;11.436;2024-02-26T08:18:12;2.80;99.90
29571;DHT22;16814;52.118;11.436;2024-02-26T08:20:38;2.80;99.90
29571;DHT22;16814;52.118;11.436;2024-02-26T08:23:04;2.90;99.90
29571;DHT22;16814;52.118;11.436;2024-02-26T08:25:29;2.90;99.90
29571;DHT22;16814;52.118;11.436;2024-02-26T08:27:55;3.00;99.90
29571;DHT22;16814;52.118;11.436;2024-02-26T08:30:20;3.10;99.90
29571;DHT22;16814;52.118;11.436;2024-02-26T08:32:47;3.30;99.90
29571;DHT22;16814;52.118;11.436;2024-02-26T08:35:13;3.30;99.90
29571;DHT22;16814;52.118;11.436;2024-02-26T08:37:38;3.40;99.90
29571;DHT22;16814;52.118;11.436;2024-02-26T08:40:05;3.50;99.90
29571;DHT22;16814;52.118;11.436;2024-02-26T08:42:31;3.50;99.90
29571;DHT22;16814;52.118;11.436;2024-02-26T08:44:56;3.60;99.90
29571;DHT22;16814;52.118;11.436;2024-02-26T08:47:24;3.70;99.90
29571;DHT22;16814;52.118;11.436;2024-02-26T08:49:49;3.60;99.90
29571;DHT22;16814;52.118;11.436;2024-02-26T08:52:15;3.70;99.90
29571;DHT22;16814;52.118;11.436;2024-02-26T08:54:40;3.70;99.90
29571;DHT22;16814;52.118;11.436;2024-02-26T08:57:06;3.80;99.90
29571;DHT22;16814;52.118;11.436;2024-02-26T08:59:31;3.80;99.90
29571;DHT22;16814;52.118;11.436;2024-02-26T09:01:57;3.90;99.90
29571;DHT22;16814;52.118;11.436;2024-02-26T09:04:23;3.80;99.90
29571;DHT22;16814;52.118;11.436;2024-02-26T09:06:48;3.70;99.90
29571;DHT22;16814;52.118;11.436;2024-02-26T09:09:14;3.90;99.90
29571;DHT22;16814;52.118;11.436;2024-02-26T09:11:40;3.90;99.90
29571;DHT22;16814;52.118;11.436;2024-02-26T09:14:05;4.10;99.90
29571;DHT22;16814;52.118;11.436;2024-02-26T09:16:31;4.20;99.90
29571;DHT22;16814;52.118;11.436;2024-02-26T09:18:57;4.30;99.90
29571;DHT22;16814;52.118;11.436;2024-02-26T09:21:22;4.10;99.90
29571;DHT22;16814;52.118;11.436;2024-02-26T09:23:50;4.20;99.90
29571;DHT22;16814;52.118;11.436;2024-02-26T09:26:16;4.20;99.90
29571;DHT22;16814;52.118;11.436;2024-02-26T09:28:42;4.30;99.90
29571;DHT22;16814;52.118;11.436;2024-02-26T09:31:07;4.40;99.90
29571;DHT22;16814;52.118;11.436;2024-02-26T09:33:33;4.40;99.90
29571;DHT22;16814;52.118;11.436;2024-02-26T09:35:59;4.40;99.90
29571;DHT22;16814;52.118;11.436;2024-02-26T09:38:26;4.50;99.90
29571;DHT22;16814;52.118;11.436;2024-02-26T09:40:52;4.40;99.90
29571;DHT22;16814;52.118;11.436;2024-02-26T09:43:21;4.50;99.90
29571;DHT22;16814;52.118;11.436;2024-02-26T09:45:49;4.40;99.90
29571;DHT22;16814;52.118;11.436;2024-02-26T09:48:16;4.40;99.90
29571;DHT22;16814;52.118;11.436;2024-02-26T09:50:43;4.40;99.90
29571;DHT22;16814;52.118;11.436;2024-02-26T09:53:10;4.30;99.90
29571;DHT22;16814;52.118;11.436;2024-02-26T09:55:36;4.40;99.90
29571;DHT22;16814;52.118;11.436;2024-02-26T09:58:04;4.40;99.90
29571;DHT22;16814;52.118;11.436;2024-02-26T10:00:31;4.40;99.90
29571;DHT22;16814;52.118;11.436;2024-02-26T10:03:03;4.40;99.90
29571;DHT22;16814;52.118;11.436;2024-02-26T10:05:29;4.50;99.90
29571;DHT22;16814;52.118;11.436;2024-02-26T10:07:56;4.60;99.90
29571;DHT22;16814;52.118;11.436;2024-02-26T10:10:23;4.70;99.90
29571;DHT22;16814;52.118;11.436;2024-02-26T10:12:49;4.90;99.90
29571;DHT22;16814;52.118;11.436;2024-02-26T10:15:15;5.00;99.90
29571;DHT22;16814;52.118;11.436;2024-02-26T10:17:41;5.00;99.90
29571;DHT22;16814;52.118;11.436;2024-02-26T10:20:13;4.90;99.90
29571;DHT22;16814;52.118;11.436;2024-02-26T10:22:42;4.90;99.90
29571;DHT22;16814;52.118;11.436;2024-02-26T10:25:08;4.90;99.90
29571;DHT22;16814;52.118;11.436;2024-02-26T10:27:34;4.90;99.90
29571;DHT22;16814;52.118;11.436;2024-02-26T10:30:20;4.80;99.90
29571;DHT22;16814;52.118;11.436;2024-02-26T10:32:47;4.80;99.90
29571;DHT22;16814;52.118;11.436;2024-02-26T10:35:14;4.90;99.90
29571;DHT22;16814;52.118;11.436;2024-02-26T10:37:41;5.00;99.90
29571;DHT22;16814;52.118;11.436;2024-02-26T10:40:10;5.00;99.90
29571;DHT22;16814;52.118;11.436;2024-02-26T10:42:36;5.10;99.90
29571;DHT22;16814;52.118;11.436;2024-02-26T10:45:01;5.20;99.90
29571;DHT22;16814;52.118;11.436;2024-02-26T10:47:28;5.30;99.90
29571;DHT22;16814;52.118;11.436;2024-02-26T10:49:54;5.20;99.90
29571;DHT22;16814;52.118;11.436;2024-02-26T10:52:22;5.10;99.90
29571;DHT22;16814;52.118;11.436;2024-02-26T10:54:49;5.30;99.90
29571;DHT22;16814;52.118;11.436;2024-02-26T10:57:15;5.30;99.90
29571;DHT22;16814;52.118;11.436;2024-02-26T10:59:43;5.30;99.90
29571;DHT22;16814;52.118;11.436;2024-02-26T11:02:10;5.30;99.90
29571;DHT22;16814;52.118;11.436;2024-02-26T11:04:37;5.30;99.90
29571;DHT22;16814;52.118;11.436;2024-02-26T11:07:04;5.30;99.90
29571;DHT22;16814;52.118;11.436;2024-02-26T11:09:31;5.60;99.90
29571;DHT22;16814;52.118;11.436;2024-02-26T11:11:58;5.60;99.90
29571;DHT22;16814;52.118;11.436;2024-02-26T11:14:25;5.60;99.90
29571;DHT22;16814;52.118;11.436;2024-02-26T11:16:51;5.60;99.90
29571;DHT22;16814;52.118;11.436;2024-02-26T11:19:18;5.60;99.90
29571;DHT22;16814;52.118;11.436;2024-02-26T11:21:43;5.60;99.90
29571;DHT22;16814;52.118;11.436;2024-02-26T11:24:12;5.50;99.90
29571;DHT22;16814;52.118;11.436;2024-02-26T11:26:57;5.60;99.90
29571;DHT22;16814;52.118;11.436;2024-02-26T11:29:26;5.70;99.90
29571;DHT22;16814;52.118;11.436;2024-02-26T11:31:53;5.60;99.90
29571;DHT22;16814;52.118;11.436;2024-02-26T11:34:18;5.60;99.90
29571;DHT22;16814;52.118;11.436;2024-02-26T11:36:45;5.60;99.90
29571;DHT22;16814;52.118;11.436;2024-02-26T11:39:11;5.70;99.90
29571;DHT22;16814;52.118;11.436;2024-02-26T11:41:42;5.80;99.90
29571;DHT22;16814;52.118;11.436;2024-02-26T11:44:08;5.80;99.90
29571;DHT22;16814;52.118;11.436;2024-02-26T11:46:39;5.80;99.90
29571;DHT22;16814;52.118;11.436;2024-02-26T11:51:57;5.80;99.90
29571;DHT22;16814;52.118;11.436;2024-02-26T11:59:52;5.90;99.90
29571;DHT22;16814;52.118;11.436;2024-02-26T12:05:19;6.10;99.90
29571;DHT22;16814;52.118;11.436;2024-02-26T12:07:49;6.00;99.90
29571;DHT22;16814;52.118;11.436;2024-02-26T12:10:23;6.10;99.90
29571;DHT22;16814;52.118;11.436;2024-02-26T12:12:53;6.20;99.90
29571;DHT22;16814;52.118;11.436;2024-02-26T12:15:22;6.20;99.90
29571;DHT22;16814;52.118;11.436;2024-02-26T12:17:48;6.20;99.90
29571;DHT22;16814;52.118;11.436;2024-02-26T12:20:16;6.20;99.90
29571;DHT22;16814;52.118;11.436;2024-02-26T12:22:45;6.30;99.90
29571;DHT22;16814;52.118;11.436;2024-02-26T12:25:13;6.30;99.90
29571;DHT22;16814;52.118;11.436;2024-02-26T12:27:38;6.30;99.90
29571;DHT22;16814;52.118;11.436;2024-02-26T12:30:04;6.30;99.90
29571;DHT22;16814;52.118;11.436;2024-02-26T12:32:31;6.30;99.90
29571;DHT22;16814;52.118;11.436;2024-02-26T12:34:58;6.40;99.90
29571;DHT22;16814;52.118;11.436;2024-02-26T12:37:23;6.50;99.90
29571;DHT22;16814;52.118;11.436;2024-02-26T12:39:49;6.50;99.90
29571;DHT22;16814;52.118;11.436;2024-02-26T12:42:15;6.70;99.90
29571;DHT22;16814;52.118;11.436;2024-02-26T12:44:41;6.60;99.90
29571;DHT22;16814;52.118;11.436;2024-02-26T12:47:06;6.60;99.90
29571;DHT22;16814;52.118;11.436;2024-02-26T12:49:32;6.60;99.90
29571;DHT22;16814;52.118;11.436;2024-02-26T12:51:58;6.70;99.90
29571;DHT22;16814;52.118;11.436;2024-02-26T12:54:33;6.80;99.90
29571;DHT22;16814;52.118;11.436;2024-02-26T12:57:05;6.80;99.90
29571;DHT22;16814;52.118;11.436;2024-02-26T12:59:32;6.90;99.90
29571;DHT22;16814;52.118;11.436;2024-02-26T13:02:00;7.00;99.90
29571;DHT22;16814;52.118;11.436;2024-02-26T13:04:28;7.00;99.90
29571;DHT22;16814;52.118;11.436;2024-02-26T13:06:54;7.10;99.90
29571;DHT22;16814;52.118;11.436;2024-02-26T13:09:19;7.10;99.90
29571;DHT22;16814;52.118;11.436;2024-02-26T13:11:53;7.20;99.90
29571;DHT22;16814;52.118;11.436;2024-02-26T13:14:22;7.10;99.90
29571;DHT22;16814;52.118;11.436;2024-02-26T13:17:01;7.20;99.90
29571;DHT22;16814;52.118;11.436;2024-02-26T13:19:27;7.20;99.90
29571;DHT22;16814;52.118;11.436;2024-02-26T13:21:53;7.20;99.90
29571;DHT22;16814;52.118;11.436;2024-02-26T13:24:22;7.10;99.90
29571;DHT22;16814;52.118;11.436;2024-02-26T13:26:57;6.90;99.90
29571;DHT22;16814;52.118;11.436;2024-02-26T13:29:22;6.90;99.90
29571;DHT22;16814;52.118;11.436;2024-02-26T13:32:00;6.90;99.90
29571;DHT22;16814;52.118;11.436;2024-02-26T13:34:29;7.00;99.90
29571;DHT22;16814;52.118;11.436;2024-02-26T13:36:56;6.90;99.90
29571;DHT22;16814;52.118;11.436;2024-02-26T13:39:26;7.10;99.90
29571;DHT22;16814;52.118;11.436;2024-02-26T13:41:52;7.00;99.90
29571;DHT22;16814;52.118;11.436;2024-02-26T13:44:19;7.10;99.90
29571;DHT22;16814;52.118;11.436;2024-02-26T13:46:45;7.00;99.90
29571;DHT22;16814;52.118;11.436;2024-02-26T13:49:10;7.00;99.90
29571;DHT22;16814;52.118;11.436;2024-02-26T13:51:37;7.10;99.90
29571;DHT22;16814;52.118;11.436;2024-02-26T13:54:03;7.10;99.90
29571;DHT22;16814;52.118;11.436;2024-02-26T13:56:29;7.00;99.90
29571;DHT22;16814;52.118;11.436;2024-02-26T13:58:54;7.10;99.90
29571;DHT22;16814;52.118;11.436;2024-02-26T14:01:20;7.10;99.90
29571;DHT22;16814;52.118;11.436;2024-02-26T14:03:45;7.10;99.90
29571;DHT22;16814;52.118;11.436;2024-02-26T14:06:11;7.10;99.90
29571;DHT22;16814;52.118;11.436;2024-02-26T14:08:37;7.10;99.90
29571;DHT22;16814;52.118;11.436;2024-02-26T14:11:02;7.20;99.90
29571;DHT22;16814;52.118;11.436;2024-02-26T14:13:28;7.30;99.90
29571;DHT22;16814;52.118;11.436;2024-02-26T14:15:54;7.30;99.90
29571;DHT22;16814;52.118;11.436;2024-02-26T14:18:19;7.40;99.90
29571;DHT22;16814;52.118;11.436;2024-02-26T14:20:45;7.50;99.90
29571;DHT22;16814;52.118;11.436;2024-02-26T14:23:10;7.50;99.90
29571;DHT22;16814;52.118;11.436;2024-02-26T14:25:36;7.50;99.90
29571;DHT22;16814;52.118;11.436;2024-02-26T14:28:02;7.50;99.90
29571;DHT22;16814;52.118;11.436;2024-02-26T14:30:28;7.50;99.90
29571;DHT22;16814;52.118;11.436;2024-02-26T14:32:54;7.60;99.90
29571;DHT22;16814;52.118;11.436;2024-02-26T14:35:19;7.60;99.90
29571;DHT22;16814;52.118;11.436;2024-02-26T14:37:45;7.50;99.90
29571;DHT22;16814;52.118;11.436;2024-02-26T14:40:15;7.60;99.90
29571;DHT22;16814;52.118;11.436;2024-02-26T14:42:41;7.50;99.90
29571;DHT22;16814;52.118;11.436;2024-02-26T14:45:07;7.60;99.90
29571;DHT22;16814;52.118;11.436;2024-02-26T14:47:35;7.60;99.90
29571;DHT22;16814;52.118;11.436;2024-02-26T14:50:01;7.70;99.90
29571;DHT22;16814;52.118;11.436;2024-02-26T14:52:26;7.70;99.90
29571;DHT22;16814;52.118;11.436;2024-02-26T14:54:52;7.70;99.90
29571;DHT22;16814;52.118;11.436;2024-02-26T14:57:18;7.80;99.90
29571;DHT22;16814;52.118;11.436;2024-02-26T14:59:44;7.70;99.90
29571;DHT22;16814;52.118;11.436;2024-02-26T15:02:10;7.70;99.90
29571;DHT22;16814;52.118;11.436;2024-02-26T15:04:36;7.70;99.90
29571;DHT22;16814;52.118;11.436;2024-02-26T15:07:02;7.70;99.90
29571;DHT22;16814;52.118;11.436;2024-02-26T15:09:28;7.70;99.90
29571;DHT22;16814;52.118;11.436;2024-02-26T15:11:53;7.70;99.90
29571;DHT22;16814;52.118;11.436;2024-02-26T15:14:19;7.70;99.90
29571;DHT22;16814;52.118;11.436;2024-02-26T15:16:44;7.70;99.90
29571;DHT22;16814;52.118;11.436;2024-02-26T15:19:10;7.80;99.90
29571;DHT22;16814;52.118;11.436;2024-02-26T15:21:43;7.90;99.90
29571;DHT22;16814;52.118;11.436;2024-02-26T15:24:08;7.80;99.90
29571;DHT22;16814;52.118;11.436;2024-02-26T15:26:36;7.80;99.90
29571;DHT22;16814;52.118;11.436;2024-02-26T15:29:02;7.80;99.90
29571;DHT22;16814;52.118;11.436;2024-02-26T15:31:27;7.70;99.90
29571;DHT22;16814;52.118;11.436;2024-02-26T15:33:53;7.70;99.90
29571;DHT22;16814;52.118;11.436;2024-02-26T15:36:18;7.60;99.90